Thunder Bay — CFN6288 — position and weather

sailwx.info

Track history (hours):
 
Tides and Currents Weather Stations Pressure Air Temp Water Temp Dewpoint Dewpoint Depression Visibility Wind Speed Wind Dir Waves Ship Positions

Thunder Bay

Last reported at 2018-Jun-17 23:36 UTC. Time now 2018-Jun-18 01:44 UTC.
Position N 45°34' W 073°30'.

Length 225 m; draft 7.4 m.

Type: Cargo ship. MMSI: 316023339.

Date/timePositionNaut miles runAvg speedWind from/ knotsBaromVisibWave heightAir tempDewpointWater temp
2018-Jun-17 23:36N 45°34' W 073°30'2 9.2
2018-Jun-17 23:23N 45°36' W 073°30'3 7.6
2018-Jun-17 22:59N 45°39' W 073°28'5 9.6
2018-Jun-17 22:31N 45°43' W 073°26'510.0
2018-Jun-17 22:00N 45°47' W 073°21'510.3
2018-Jun-17 21:30N 45°51' W 073°16'5 9.9
2018-Jun-17 21:00N 45°55' W 073°13'510.3
2018-Jun-17 20:30N 46°00' W 073°11'5 9.0
2018-Jun-17 20:01N 46°04' W 073°06'8911.5
2018-Jun-17 12:18N 46°46' W 071°14'411.4
2018-Jun-17 11:58N 46°50' W 071°12'0 0.1
2018-Jun-17 11:30N 46°50' W 071°12'0 0.0
2018-Jun-17 11:00N 46°50' W 071°12'0 0.0
2018-Jun-17 10:31N 46°50' W 071°12'0 0.0
2018-Jun-17 10:00N 46°50' W 071°12'0 0.0
2018-Jun-17 09:30N 46°50' W 071°12'0 0.0
2018-Jun-17 09:00N 46°50' W 071°12'0 0.0
2018-Jun-17 08:30N 46°50' W 071°12'0 0.0
2018-Jun-17 08:00N 46°50' W 071°12'0 0.0
2018-Jun-17 07:30N 46°50' W 071°12'0 0.0
2018-Jun-17 06:59N 46°50' W 071°12'0 0.0
2018-Jun-17 06:30N 46°50' W 071°12'0 0.0
2018-Jun-17 06:00N 46°50' W 071°12'0 0.0
2018-Jun-17 05:29N 46°50' W 071°12'0 0.0
2018-Jun-17 04:58N 46°50' W 071°12'0 0.0
2018-Jun-17 04:30N 46°50' W 071°12'0 0.0
2018-Jun-17 03:41N 46°50' W 071°12'0 0.0
2018-Jun-17 03:30N 46°50' W 071°12'0 0.0
2018-Jun-17 03:00N 46°50' W 071°12'8711.0
2018-Jun-16 19:09N 46°06' W 072°60'213.9
2018-Jun-16 19:00N 46°04' W 073°02'612.5
2018-Jun-16 18:31N 46°02' W 073°10'713.9
2018-Jun-16 18:00N 45°55' W 073°13'713.4
2018-Jun-16 17:30N 45°49' W 073°18'713.7
2018-Jun-16 16:59N 45°44' W 073°25'1511.1
2018-Jun-16 15:40N 45°30' W 073°31'0 2.8
2018-Jun-16 15:30N 45°30' W 073°31'0 0.3
2018-Jun-16 15:00N 45°30' W 073°31'1 1.9
2018-Jun-16 14:30N 45°29' W 073°31'3 5.3
2018-Jun-16 14:01N 45°26' W 073°30'2 4.8
2018-Jun-16 13:31N 45°24' W 073°33'1 1.8
2018-Jun-16 13:01N 45°24' W 073°34'0 0.6
2018-Jun-16 12:30N 45°24' W 073°34'1 2.6
2018-Jun-16 12:00N 45°24' W 073°36'2 4.8
2018-Jun-16 11:30N 45°25' W 073°40'3 5.8
2018-Jun-16 11:00N 45°24' W 073°44'510.0
2018-Jun-16 10:30N 45°22' W 073°50'5 9.1
2018-Jun-16 10:00N 45°19' W 073°55'0 0.4
2018-Jun-16 09:31N 45°19' W 073°55'1 1.4
2018-Jun-16 09:01N 45°18' W 073°56'0 0.4
2018-Jun-16 08:30N 45°18' W 073°56'1 2.1
2018-Jun-16 08:00N 45°17' W 073°56'4 8.6
2018-Jun-16 07:30N 45°14' W 074°00'1910.6
2018-Jun-16 05:40N 45°08' W 074°26'360 7.5
2018-Jun-14 06:00N 42°00' W 081°30'7915.8 330 / 101013.010.8 19.0
2018-Jun-14 01:00N 42°54' W 082°48'114 6.3 310 / 131012.027.0 27.0
2018-Jun-13 07:00N 44°48' W 082°48'4211.1 220 / 18168.5 5.4 10.0
2018-Jun-13 03:13N 45°26' W 083°13'312.7
2018-Jun-13 02:58N 45°28' W 083°16'612.7
2018-Jun-13 02:31N 45°33' W 083°22'712.7
2018-Jun-13 02:00N 45°37' W 083°28'712.7
2018-Jun-13 01:25N 45°43' W 083°35'33210.1
2018-Jun-11 16:29N 47°02' W 091°23'612.5
2018-Jun-11 16:00N 46°59' W 091°31'612.4
2018-Jun-11 15:29N 46°56' W 091°39'612.4
2018-Jun-11 15:00N 46°53' W 091°47'612.3
2018-Jun-11 14:30N 46°50' W 091°55'612.1
2018-Jun-11 14:00N 46°48' W 092°03'3 5.4
2018-Jun-11 13:30N 46°46' W 092°06'1 2.5
2018-Jun-11 13:00N 46°45' W 092°07'1 1.8
2018-Jun-11 12:30N 46°45' W 092°08'0 0.1
2018-Jun-11 12:00N 46°45' W 092°08'0 0.0
2018-Jun-11 11:30N 46°45' W 092°08'0 0.0
2018-Jun-11 11:00N 46°45' W 092°08'0 0.0
2018-Jun-11 10:30N 46°45' W 092°08'0 0.0
2018-Jun-11 10:01N 46°45' W 092°08'0 0.0
2018-Jun-11 09:30N 46°45' W 092°08'0 0.0
2018-Jun-11 09:00N 46°45' W 092°08'0 0.0
2018-Jun-11 08:31N 46°45' W 092°08'0 0.0
2018-Jun-11 08:00N 46°45' W 092°08'0 0.1
2018-Jun-11 07:31N 46°45' W 092°08'0 0.0
2018-Jun-11 07:01N 46°45' W 092°08'0 0.1
2018-Jun-11 06:31N 46°45' W 092°08'0 0.0
2018-Jun-11 06:01N 46°45' W 092°08'0 0.0
2018-Jun-11 05:28N 46°45' W 092°08'0 0.0
2018-Jun-11 04:56N 46°45' W 092°08'0 0.0
2018-Jun-11 04:30N 46°45' W 092°08'0 0.0
2018-Jun-11 04:01N 46°45' W 092°08'0 0.0
2018-Jun-11 03:31N 46°45' W 092°08'0 0.0
2018-Jun-11 03:00N 46°45' W 092°08'0 0.0
2018-Jun-11 02:30N 46°45' W 092°08'0 0.0
2018-Jun-11 02:00N 46°45' W 092°08'0 0.0
2018-Jun-11 01:30N 46°45' W 092°08'0 0.0
2018-Jun-11 01:00N 46°45' W 092°08'0 0.0
2018-Jun-11 00:30N 46°45' W 092°08'0 0.0
2018-Jun-11 00:00N 46°45' W 092°08'0 0.0
2018-Jun-10 23:30N 46°45' W 092°08'0 0.0
2018-Jun-10 23:00N 46°45' W 092°08'0 0.0
2018-Jun-10 22:30N 46°45' W 092°08'0 0.0
2018-Jun-10 22:00N 46°45' W 092°08'0 0.0
2018-Jun-10 21:30N 46°45' W 092°08'0 0.0
2018-Jun-10 21:00N 46°45' W 092°08'0 0.0
2018-Jun-10 20:30N 46°45' W 092°08'0 0.0
2018-Jun-10 20:00N 46°45' W 092°08'0 0.8
2018-Jun-10 19:31N 46°45' W 092°08'2 3.0
2018-Jun-10 19:00N 46°45' W 092°05'2 3.7
2018-Jun-10 18:31N 46°47' W 092°05'611.6
2018-Jun-10 18:00N 46°49' W 091°57'713.4
2018-Jun-10 17:31N 46°52' W 091°48'713.3
2018-Jun-10 17:00N 46°54' W 091°39'2124.4
2018-Jun-10 17:00N 46°54' W 091°42'28012.7 060 / 201016.010.8 9.0
2018-Jun-09 19:00N 46°42' W 084°54'42 6.3 100 / 31020.010.8 24.0
2018-Jun-09 12:15N 46°15' W 084°06'2 6.2
2018-Jun-09 12:00N 46°14' W 084°07'5 9.2
2018-Jun-09 11:30N 46°10' W 084°04'510.4
2018-Jun-09 10:59N 46°05' W 084°01'611.7
2018-Jun-09 10:29N 46°02' W 083°53'612.0
2018-Jun-09 09:59N 45°56' W 083°53'613.1
2018-Jun-09 09:30N 45°51' W 083°48'713.1
2018-Jun-09 09:00N 45°46' W 083°42'713.1
2018-Jun-09 08:31N 45°40' W 083°37'713.2
2018-Jun-09 08:00N 45°35' W 083°31'713.2
2018-Jun-09 07:30N 45°30' W 083°25'713.1
2018-Jun-09 07:01N 45°24' W 083°20'713.2
2018-Jun-09 06:29N 45°19' W 083°14'  
Track history (hours):
 
Tides and Currents Weather Stations Pressure Air Temp Water Temp Dewpoint Dewpoint Depression Visibility Wind Speed Wind Dir Waves Ship Positions

Thunder Bay

Last reported at 2018-Jun-17 23:36 UTC. Time now 2018-Jun-18 01:44 UTC.
Position N 45°34' W 073°30'.

Length 225 m; draft 7.4 m.

Type: Cargo ship. MMSI: 316023339.

Date/timePositionNaut miles runAvg speedWind from/ knotsBaromVisibWave heightAir tempDewpointWater temp
2018-Jun-17 23:36N 45°34' W 073°30'2 9.2
2018-Jun-17 23:23N 45°36' W 073°30'3 7.6
2018-Jun-17 22:59N 45°39' W 073°28'5 9.6
2018-Jun-17 22:31N 45°43' W 073°26'510.0
2018-Jun-17 22:00N 45°47' W 073°21'510.3
2018-Jun-17 21:30N 45°51' W 073°16'5 9.9
2018-Jun-17 21:00N 45°55' W 073°13'510.3
2018-Jun-17 20:30N 46°00' W 073°11'5 9.0
2018-Jun-17 20:01N 46°04' W 073°06'8911.5
2018-Jun-17 12:18N 46°46' W 071°14'411.4
2018-Jun-17 11:58N 46°50' W 071°12'0 0.1
2018-Jun-17 11:30N 46°50' W 071°12'0 0.0
2018-Jun-17 11:00N 46°50' W 071°12'0 0.0
2018-Jun-17 10:31N 46°50' W 071°12'0 0.0
2018-Jun-17 10:00N 46°50' W 071°12'0 0.0
2018-Jun-17 09:30N 46°50' W 071°12'0 0.0
2018-Jun-17 09:00N 46°50' W 071°12'0 0.0
2018-Jun-17 08:30N 46°50' W 071°12'0 0.0
2018-Jun-17 08:00N 46°50' W 071°12'0 0.0
2018-Jun-17 07:30N 46°50' W 071°12'0 0.0
2018-Jun-17 06:59N 46°50' W 071°12'0 0.0
2018-Jun-17 06:30N 46°50' W 071°12'0 0.0
2018-Jun-17 06:00N 46°50' W 071°12'0 0.0
2018-Jun-17 05:29N 46°50' W 071°12'0 0.0
2018-Jun-17 04:58N 46°50' W 071°12'0 0.0
2018-Jun-17 04:30N 46°50' W 071°12'0 0.0
2018-Jun-17 03:41N 46°50' W 071°12'0 0.0
2018-Jun-17 03:30N 46°50' W 071°12'0 0.0
2018-Jun-17 03:00N 46°50' W 071°12'8711.0
2018-Jun-16 19:09N 46°06' W 072°60'213.9
2018-Jun-16 19:00N 46°04' W 073°02'612.5
2018-Jun-16 18:31N 46°02' W 073°10'713.9
2018-Jun-16 18:00N 45°55' W 073°13'713.4
2018-Jun-16 17:30N 45°49' W 073°18'713.7
2018-Jun-16 16:59N 45°44' W 073°25'1511.1
2018-Jun-16 15:40N 45°30' W 073°31'0 2.8
2018-Jun-16 15:30N 45°30' W 073°31'0 0.3
2018-Jun-16 15:00N 45°30' W 073°31'1 1.9
2018-Jun-16 14:30N 45°29' W 073°31'3 5.3
2018-Jun-16 14:01N 45°26' W 073°30'2 4.8
2018-Jun-16 13:31N 45°24' W 073°33'1 1.8
2018-Jun-16 13:01N 45°24' W 073°34'0 0.6
2018-Jun-16 12:30N 45°24' W 073°34'1 2.6
2018-Jun-16 12:00N 45°24' W 073°36'2 4.8
2018-Jun-16 11:30N 45°25' W 073°40'3 5.8
2018-Jun-16 11:00N 45°24' W 073°44'510.0
2018-Jun-16 10:30N 45°22' W 073°50'5 9.1
2018-Jun-16 10:00N 45°19' W 073°55'0 0.4
2018-Jun-16 09:31N 45°19' W 073°55'1 1.4
2018-Jun-16 09:01N 45°18' W 073°56'0 0.4
2018-Jun-16 08:30N 45°18' W 073°56'1 2.1
2018-Jun-16 08:00N 45°17' W 073°56'4 8.6
2018-Jun-16 07:30N 45°14' W 074°00'1910.6
2018-Jun-16 05:40N 45°08' W 074°26'360 7.5
2018-Jun-14 06:00N 42°00' W 081°30'7915.8 330 / 101013.010.8 19.0
2018-Jun-14 01:00N 42°54' W 082°48'114 6.3 310 / 131012.027.0 27.0
2018-Jun-13 07:00N 44°48' W 082°48'4211.1 220 / 18168.5 5.4 10.0
2018-Jun-13 03:13N 45°26' W 083°13'312.7
2018-Jun-13 02:58N 45°28' W 083°16'612.7
2018-Jun-13 02:31N 45°33' W 083°22'712.7
2018-Jun-13 02:00N 45°37' W 083°28'712.7
2018-Jun-13 01:25N 45°43' W 083°35'33210.1
2018-Jun-11 16:29N 47°02' W 091°23'612.5
2018-Jun-11 16:00N 46°59' W 091°31'612.4
2018-Jun-11 15:29N 46°56' W 091°39'612.4
2018-Jun-11 15:00N 46°53' W 091°47'612.3
2018-Jun-11 14:30N 46°50' W 091°55'612.1
2018-Jun-11 14:00N 46°48' W 092°03'3 5.4
2018-Jun-11 13:30N 46°46' W 092°06'1 2.5
2018-Jun-11 13:00N 46°45' W 092°07'1 1.8
2018-Jun-11 12:30N 46°45' W 092°08'0 0.1
2018-Jun-11 12:00N 46°45' W 092°08'0 0.0
2018-Jun-11 11:30N 46°45' W 092°08'0 0.0
2018-Jun-11 11:00N 46°45' W 092°08'0 0.0
2018-Jun-11 10:30N 46°45' W 092°08'0 0.0
2018-Jun-11 10:01N 46°45' W 092°08'0 0.0
2018-Jun-11 09:30N 46°45' W 092°08'0 0.0
2018-Jun-11 09:00N 46°45' W 092°08'0 0.0
2018-Jun-11 08:31N 46°45' W 092°08'0 0.0
2018-Jun-11 08:00N 46°45' W 092°08'0 0.1
2018-Jun-11 07:31N 46°45' W 092°08'0 0.0
2018-Jun-11 07:01N 46°45' W 092°08'0 0.1
2018-Jun-11 06:31N 46°45' W 092°08'0 0.0
2018-Jun-11 06:01N 46°45' W 092°08'0 0.0
2018-Jun-11 05:28N 46°45' W 092°08'0 0.0
2018-Jun-11 04:56N 46°45' W 092°08'0 0.0
2018-Jun-11 04:30N 46°45' W 092°08'0 0.0
2018-Jun-11 04:01N 46°45' W 092°08'0 0.0
2018-Jun-11 03:31N 46°45' W 092°08'0 0.0
2018-Jun-11 03:00N 46°45' W 092°08'0 0.0
2018-Jun-11 02:30N 46°45' W 092°08'0 0.0
2018-Jun-11 02:00N 46°45' W 092°08'0 0.0
2018-Jun-11 01:30N 46°45' W 092°08'0 0.0
2018-Jun-11 01:00N 46°45' W 092°08'0 0.0
2018-Jun-11 00:30N 46°45' W 092°08'0 0.0
2018-Jun-11 00:00N 46°45' W 092°08'0 0.0
2018-Jun-10 23:30N 46°45' W 092°08'0 0.0
2018-Jun-10 23:00N 46°45' W 092°08'0 0.0
2018-Jun-10 22:30N 46°45' W 092°08'0 0.0
2018-Jun-10 22:00N 46°45' W 092°08'0 0.0
2018-Jun-10 21:30N 46°45' W 092°08'0 0.0
2018-Jun-10 21:00N 46°45' W 092°08'0 0.0
2018-Jun-10 20:30N 46°45' W 092°08'0 0.0
2018-Jun-10 20:00N 46°45' W 092°08'0 0.8
2018-Jun-10 19:31N 46°45' W 092°08'2 3.0
2018-Jun-10 19:00N 46°45' W 092°05'2 3.7
2018-Jun-10 18:31N 46°47' W 092°05'611.6
2018-Jun-10 18:00N 46°49' W 091°57'713.4
2018-Jun-10 17:31N 46°52' W 091°48'713.3
2018-Jun-10 17:00N 46°54' W 091°39'2124.4
2018-Jun-10 17:00N 46°54' W 091°42'28012.7 060 / 201016.010.8 9.0
2018-Jun-09 19:00N 46°42' W 084°54'42 6.3 100 / 31020.010.8 24.0
2018-Jun-09 12:15N 46°15' W 084°06'2 6.2
2018-Jun-09 12:00N 46°14' W 084°07'5 9.2
2018-Jun-09 11:30N 46°10' W 084°04'510.4
2018-Jun-09 10:59N 46°05' W 084°01'611.7
2018-Jun-09 10:29N 46°02' W 083°53'612.0
2018-Jun-09 09:59N 45°56' W 083°53'613.1
2018-Jun-09 09:30N 45°51' W 083°48'713.1
2018-Jun-09 09:00N 45°46' W 083°42'713.1
2018-Jun-09 08:31N 45°40' W 083°37'713.2
2018-Jun-09 08:00N 45°35' W 083°31'713.2
2018-Jun-09 07:30N 45°30' W 083°25'713.1
2018-Jun-09 07:01N 45°24' W 083°20'713.2
2018-Jun-09 06:29N 45°19' W 083°14'  

Dump ship's entire track history